createdAt,value
2018-09-13T00:00:05.488Z,10.63
2018-09-13T00:02:33.787Z,14.77
2018-09-13T00:05:02.113Z,13.37
2018-09-13T00:07:30.412Z,12.47
2018-09-13T00:09:58.749Z,9.47
2018-09-13T00:12:27.043Z,7.63
2018-09-13T00:14:55.356Z,11.73
2018-09-13T00:17:23.654Z,10.40
2018-09-13T00:19:51.967Z,8.20
2018-09-13T00:22:20.279Z,12.20
2018-09-13T00:24:48.591Z,10.00
2018-09-13T00:27:16.892Z,12.87
2018-09-13T00:29:45.220Z,11.40
2018-09-13T00:32:13.523Z,9.30
2018-09-13T00:34:41.843Z,16.37
2018-09-13T00:37:10.144Z,14.03
2018-09-13T00:39:38.458Z,14.20
2018-09-13T00:42:06.792Z,16.30
2018-09-13T00:44:35.113Z,10.23
2018-09-13T00:47:08.656Z,12.20
2018-09-13T00:49:36.971Z,13.27
2018-09-13T00:52:05.280Z,5.17
2018-09-13T00:54:33.592Z,10.97
2018-09-13T00:57:01.926Z,7.80
2018-09-13T00:59:30.224Z,17.40
2018-09-13T01:01:58.601Z,7.93
2018-09-13T01:04:26.936Z,10.40
2018-09-13T01:06:55.228Z,7.40
2018-09-13T01:09:23.528Z,8.60
2018-09-13T01:11:51.864Z,11.83
2018-09-13T01:14:20.156Z,9.83
2018-09-13T01:16:48.483Z,12.07
2018-09-13T01:19:16.780Z,10.63
2018-09-13T01:21:45.096Z,9.73
2018-09-13T01:24:13.388Z,9.13
2018-09-13T01:26:41.704Z,12.17
2018-09-13T01:29:10.000Z,8.10
2018-09-13T01:31:38.324Z,10.70
2018-09-13T01:34:06.664Z,10.03
2018-09-13T01:36:35.013Z,10.77
2018-09-13T01:39:04.117Z,11.80
2018-09-13T01:41:32.432Z,14.53
2018-09-13T01:44:00.730Z,6.40
2018-09-13T01:46:29.039Z,10.63
2018-09-13T01:48:57.333Z,7.87
2018-09-13T01:51:25.663Z,15.27
2018-09-13T01:53:53.951Z,6.20
2018-09-13T01:56:22.268Z,12.70
2018-09-13T01:58:50.665Z,11.17
2018-09-13T02:01:18.980Z,10.87
2018-09-13T02:03:47.289Z,10.33
2018-09-13T02:06:15.612Z,12.60
2018-09-13T02:08:43.903Z,13.50
2018-09-13T02:11:12.257Z,12.00
2018-09-13T02:13:40.561Z,10.77
2018-09-13T02:16:08.883Z,13.03
2018-09-13T02:18:37.176Z,7.27
2018-09-13T02:21:05.652Z,9.27
2018-09-13T02:23:33.963Z,8.80
2018-09-13T02:26:02.285Z,11.37
2018-09-13T02:28:30.584Z,13.37
2018-09-13T02:30:58.898Z,9.47
2018-09-13T02:33:27.276Z,11.43
2018-09-13T02:35:55.596Z,7.10
2018-09-13T02:38:23.896Z,12.70
2018-09-13T02:40:52.204Z,9.43
2018-09-13T02:43:20.756Z,15.20
2018-09-13T02:45:49.078Z,14.20
2018-09-13T02:48:17.373Z,16.73
2018-09-13T02:50:45.697Z,17.47
2018-09-13T02:53:13.992Z,21.17
2018-09-13T02:55:42.311Z,12.10
2018-09-13T02:58:10.636Z,16.10
2018-09-13T03:00:38.956Z,15.50
2018-09-13T03:03:07.263Z,18.90
2018-09-13T03:05:35.586Z,19.37
2018-09-13T03:08:03.893Z,12.33
2018-09-13T03:10:32.236Z,16.70
2018-09-13T03:13:00.533Z,16.57
2018-09-13T03:15:28.847Z,19.40
2018-09-13T03:17:57.149Z,9.10
2018-09-13T03:20:25.454Z,23.60
2018-09-13T03:22:53.771Z,21.40
2018-09-13T03:25:22.084Z,19.90
2018-09-13T03:27:50.445Z,20.60
2018-09-13T03:30:18.763Z,18.70
2018-09-13T03:32:47.086Z,21.17
2018-09-13T03:35:15.388Z,20.03
2018-09-13T03:37:43.712Z,29.70
2018-09-13T03:40:12.025Z,28.07
2018-09-13T03:42:40.349Z,28.40
2018-09-13T03:45:08.653Z,28.03
2018-09-13T03:47:36.975Z,28.50
2018-09-13T03:50:05.312Z,28.17
2018-09-13T03:52:33.642Z,28.67
2018-09-13T03:55:01.956Z,29.13
2018-09-13T03:57:30.326Z,27.83
2018-09-13T03:59:58.688Z,28.33
2018-09-13T04:02:27.036Z,30.13
2018-09-13T04:04:55.324Z,32.67
2018-09-13T04:07:23.636Z,35.23
2018-09-13T04:09:51.956Z,28.17
2018-09-13T04:12:20.620Z,32.80
2018-09-13T04:14:48.943Z,31.03
2018-09-13T04:17:17.268Z,37.90
2018-09-13T04:19:46.498Z,35.23
2018-09-13T04:22:15.724Z,38.70
2018-09-13T04:24:44.503Z,34.57
2018-09-13T04:27:13.225Z,38.83
2018-09-13T04:29:41.905Z,48.00
2018-09-13T04:32:10.225Z,36.67
2018-09-13T04:34:38.687Z,34.90
2018-09-13T04:37:07.069Z,39.60
2018-09-13T04:39:35.372Z,45.57
2018-09-13T04:42:03.695Z,43.00
2018-09-13T04:44:32.028Z,42.37
2018-09-13T04:47:00.357Z,50.43
2018-09-13T04:49:28.662Z,26.10
2018-09-13T04:51:56.983Z,21.10
2018-09-13T04:54:25.312Z,21.80
2018-09-13T04:56:53.629Z,50.23
2018-09-13T04:59:21.936Z,24.43
2018-09-13T05:01:50.252Z,31.23
2018-09-13T05:04:18.553Z,32.83
2018-09-13T05:06:46.880Z,25.90
2018-09-13T05:09:15.239Z,42.03
2018-09-13T05:11:43.576Z,42.47
2018-09-13T05:14:11.876Z,38.53
2018-09-13T05:16:40.196Z,37.80
2018-09-13T05:19:08.500Z,33.30
2018-09-13T05:21:36.828Z,27.97
2018-09-13T05:24:05.160Z,35.83
2018-09-13T05:26:33.479Z,30.30
2018-09-13T05:29:01.795Z,31.90
2018-09-13T05:31:30.176Z,33.17
2018-09-13T05:33:58.713Z,36.60
2018-09-13T05:36:27.014Z,28.57
2018-09-13T05:38:55.475Z,41.40
2018-09-13T05:41:23.780Z,34.50
2018-09-13T05:43:52.091Z,32.97
2018-09-13T05:46:20.398Z,40.97
2018-09-13T05:48:48.728Z,35.97
2018-09-13T05:51:17.079Z,38.13
2018-09-13T05:53:45.379Z,41.00
2018-09-13T05:56:13.676Z,40.30
2018-09-13T05:58:41.996Z,32.90
2018-09-13T06:01:10.405Z,30.07
2018-09-13T06:03:38.728Z,30.90
2018-09-13T06:06:07.041Z,30.67
2018-09-13T06:08:35.358Z,30.97
2018-09-13T06:11:03.681Z,30.60
2018-09-13T06:13:32.026Z,36.30
2018-09-13T06:16:00.342Z,43.67
2018-09-13T06:18:28.664Z,42.23
2018-09-13T06:20:56.972Z,37.10
2018-09-13T06:23:25.300Z,34.80
2018-09-13T06:25:53.608Z,44.40
2018-09-13T06:28:21.946Z,41.83
2018-09-13T06:30:50.244Z,46.47
2018-09-13T06:33:18.570Z,47.40
2018-09-13T06:35:46.880Z,54.20
2018-09-13T06:38:15.215Z,30.80
2018-09-13T06:40:43.533Z,54.20
2018-09-13T06:43:11.863Z,42.27
2018-09-13T06:45:40.176Z,46.47
2018-09-13T06:48:08.501Z,49.87
2018-09-13T06:50:36.809Z,35.33
2018-09-13T06:53:05.140Z,37.73
2018-09-13T06:55:33.440Z,35.97
2018-09-13T06:58:01.756Z,48.97
2018-09-13T07:00:30.120Z,48.50
2018-09-13T07:02:58.437Z,37.90
2018-09-13T07:05:26.999Z,45.20
2018-09-13T07:07:55.343Z,40.73
2018-09-13T07:10:23.664Z,41.07
2018-09-13T07:12:51.983Z,41.33
2018-09-13T07:15:20.304Z,52.83
2018-09-13T07:17:48.624Z,45.90
2018-09-13T07:20:16.932Z,49.10
2018-09-13T07:22:45.262Z,50.07
2018-09-13T07:25:13.661Z,50.97
2018-09-13T07:27:42.010Z,62.47
2018-09-13T07:30:10.318Z,43.00
2018-09-13T07:32:38.652Z,57.70
2018-09-13T07:35:06.948Z,42.43
2018-09-13T07:37:35.305Z,48.20
2018-09-13T07:40:03.627Z,43.40
2018-09-13T07:42:32.124Z,46.50
2018-09-13T07:45:00.383Z,41.53
2018-09-13T07:47:28.680Z,50.33
2018-09-13T07:49:57.116Z,42.80
2018-09-13T07:52:25.372Z,43.40
2018-09-13T07:54:53.699Z,35.37
2018-09-13T07:57:22.004Z,41.73
2018-09-13T07:59:50.328Z,33.37
2018-09-13T08:02:18.622Z,38.50
2018-09-13T08:04:46.936Z,44.43
2018-09-13T08:07:15.249Z,39.67
2018-09-13T08:09:43.580Z,38.30
2018-09-13T08:12:12.041Z,32.00
2018-09-13T08:14:40.448Z,36.53
2018-09-13T08:17:08.766Z,31.97
2018-09-13T08:19:37.076Z,32.33
2018-09-13T08:22:05.457Z,37.63
2018-09-13T08:24:33.750Z,38.77
2018-09-13T08:27:02.062Z,30.37
2018-09-13T08:29:30.400Z,34.43
2018-09-13T08:31:58.716Z,29.47
2018-09-13T08:34:27.042Z,35.83
2018-09-13T08:36:55.390Z,33.17
2018-09-13T08:39:23.703Z,33.33
2018-09-13T08:41:52.012Z,28.17
2018-09-13T08:44:20.381Z,30.27
2018-09-13T08:46:48.688Z,32.80
2018-09-13T08:49:17.011Z,31.47
2018-09-13T08:51:45.320Z,27.33
2018-09-13T08:54:13.640Z,22.57
2018-09-13T08:56:41.940Z,26.27
2018-09-13T08:59:10.279Z,22.27
2018-09-13T09:01:38.584Z,27.47
2018-09-13T09:04:06.913Z,26.93
2018-09-13T09:06:35.317Z,25.87
2018-09-13T09:09:04.167Z,26.67
2018-09-13T09:11:32.560Z,28.93
2018-09-13T09:14:00.825Z,25.57
2018-09-13T09:16:29.136Z,32.37
2018-09-13T09:18:57.460Z,31.00
2018-09-13T09:21:25.774Z,37.73
2018-09-13T09:23:54.105Z,27.50
2018-09-13T09:26:22.408Z,34.50
2018-09-13T09:28:50.848Z,34.20
2018-09-13T09:31:19.184Z,31.93
2018-09-13T09:33:47.514Z,25.90
2018-09-13T09:36:15.836Z,29.73
2018-09-13T09:38:44.160Z,37.60
2018-09-13T09:41:12.514Z,33.63
2018-09-13T09:43:40.807Z,35.80
2018-09-13T09:46:09.111Z,41.50
2018-09-13T09:48:37.460Z,34.73
2018-09-13T09:51:05.765Z,47.47
2018-09-13T09:53:34.088Z,38.43
2018-09-13T09:56:02.415Z,32.63
2018-09-13T09:58:30.720Z,38.60
2018-09-13T10:01:04.544Z,48.07
2018-09-13T10:03:32.844Z,41.97
2018-09-13T10:06:01.156Z,47.23
2018-09-13T10:08:29.453Z,46.00
2018-09-13T10:10:58.032Z,40.47
2018-09-13T10:13:26.334Z,43.07
2018-09-13T10:16:00.071Z,41.97
2018-09-13T10:18:33.992Z,39.67
2018-09-13T10:22:10.667Z,46.50
2018-09-13T10:24:44.531Z,35.07
2018-09-13T10:27:18.260Z,36.10
2018-09-13T10:29:52.668Z,58.40
2018-09-13T10:32:26.494Z,64.03
2018-09-13T10:35:00.424Z,70.53
2018-09-13T10:37:34.154Z,70.00
2018-09-13T10:40:07.812Z,61.57
2018-09-13T10:42:41.483Z,74.20
2018-09-13T10:45:15.140Z,75.77
2018-09-13T10:48:46.484Z,80.80
2018-09-13T10:51:20.776Z,85.03
2018-09-13T10:53:58.479Z,86.33
2018-09-13T10:56:27.143Z,58.03
2018-09-13T10:58:55.454Z,54.00
2018-09-13T11:01:23.780Z,76.10
2018-09-13T11:03:52.745Z,65.03
2018-09-13T11:06:21.080Z,58.10
2018-09-13T11:08:49.404Z,59.47
2018-09-13T11:11:17.772Z,56.77
2018-09-13T11:15:54.102Z,50.30
2018-09-13T11:18:22.414Z,52.40
2018-09-13T11:20:50.741Z,53.10
2018-09-13T11:23:19.043Z,51.07
2018-09-13T11:25:47.359Z,60.77
2018-09-13T11:28:15.659Z,55.03
2018-09-13T11:30:44.064Z,49.63
2018-09-13T11:33:12.315Z,48.73
2018-09-13T11:35:40.644Z,50.07
2018-09-13T11:38:08.944Z,48.30
2018-09-13T11:40:37.399Z,45.27
2018-09-13T11:43:05.579Z,51.63
2018-09-13T11:45:33.892Z,49.03
2018-09-13T11:48:02.197Z,51.50
2018-09-13T11:50:30.540Z,48.07
2018-09-13T11:52:58.839Z,62.63
2018-09-13T11:55:27.187Z,49.50
2018-09-13T11:57:55.496Z,51.67
2018-09-13T12:00:23.824Z,56.07
2018-09-13T12:02:52.133Z,52.73
2018-09-13T12:05:20.448Z,56.13
2018-09-13T12:07:48.753Z,44.83
2018-09-13T12:10:17.087Z,49.30
2018-09-13T12:12:45.389Z,34.70
2018-09-13T12:15:13.704Z,49.30
2018-09-13T12:17:42.008Z,35.60
2018-09-13T12:20:10.328Z,36.93
2018-09-13T12:22:39.526Z,40.90
2018-09-13T12:25:07.812Z,45.33
2018-09-13T12:27:36.193Z,34.40
2018-09-13T12:30:04.939Z,33.67
2018-09-13T12:32:33.358Z,36.00
2018-09-13T12:35:01.682Z,34.63
2018-09-13T12:37:29.986Z,34.60
2018-09-13T12:39:58.304Z,32.33
2018-09-13T12:42:26.602Z,34.83
2018-09-13T12:44:54.932Z,35.50
2018-09-13T12:47:23.240Z,41.93
2018-09-13T12:49:51.634Z,38.93
2018-09-13T12:52:19.973Z,25.90
2018-09-13T12:54:48.252Z,26.23
2018-09-13T12:57:16.571Z,33.57
2018-09-13T12:59:44.927Z,30.03
2018-09-13T13:02:13.216Z,29.07
2018-09-13T13:04:41.516Z,38.93
2018-09-13T13:07:09.827Z,26.40
2018-09-13T13:09:38.120Z,28.83
2018-09-13T13:12:06.540Z,27.47
2018-09-13T13:14:34.852Z,25.33
2018-09-13T13:17:03.289Z,27.90
2018-09-13T13:19:31.528Z,28.67
2018-09-13T13:21:59.845Z,24.83
2018-09-13T13:24:28.140Z,31.43
2018-09-13T13:26:56.491Z,31.70
2018-09-13T13:29:24.780Z,31.77
2018-09-13T13:31:53.096Z,34.03
2018-09-13T13:34:21.404Z,26.27
2018-09-13T13:36:49.716Z,30.43
2018-09-13T13:39:18.016Z,31.60
2018-09-13T13:41:46.332Z,32.50
2018-09-13T13:44:14.624Z,32.43
2018-09-13T13:46:42.961Z,34.53
2018-09-13T13:49:11.260Z,31.67
2018-09-13T13:51:39.587Z,36.80
2018-09-13T13:54:07.884Z,41.97
2018-09-13T13:56:36.201Z,44.77
2018-09-13T13:59:04.528Z,38.57
2018-09-13T14:01:32.852Z,33.60
2018-09-13T14:04:01.152Z,48.60
2018-09-13T14:06:29.529Z,33.97
2018-09-13T14:08:57.840Z,33.33
2018-09-13T14:11:26.183Z,34.83
2018-09-13T14:13:54.488Z,38.03
2018-09-13T14:16:22.812Z,32.83
2018-09-13T14:18:51.115Z,39.87
2018-09-13T14:21:19.451Z,31.90
2018-09-13T14:23:47.764Z,40.63
2018-09-13T14:26:16.064Z,44.67
2018-09-13T14:28:44.388Z,48.17
2018-09-13T14:31:12.689Z,44.47
2018-09-13T14:33:41.009Z,39.40
2018-09-13T14:36:09.359Z,43.00
2018-09-13T14:38:37.680Z,43.90
2018-09-13T14:41:06.243Z,38.63
2018-09-13T14:43:34.575Z,39.10
2018-09-13T14:46:03.027Z,36.17
2018-09-13T14:48:31.236Z,45.70
2018-09-13T14:50:59.544Z,45.23
2018-09-13T14:53:27.867Z,42.53
2018-09-13T14:55:56.181Z,41.20
2018-09-13T14:58:24.495Z,37.87
2018-09-13T15:00:52.799Z,39.83
2018-09-13T15:03:21.119Z,35.37
2018-09-13T15:05:49.425Z,50.03
2018-09-13T15:08:17.751Z,38.90
2018-09-13T15:10:46.076Z,40.47
2018-09-13T15:13:14.413Z,39.43
2018-09-13T15:15:42.712Z,33.57
2018-09-13T15:18:11.112Z,39.03
2018-09-13T15:20:39.576Z,33.63
2018-09-13T15:23:07.896Z,38.53
2018-09-13T15:25:36.196Z,43.27
2018-09-13T15:28:04.519Z,36.50
2018-09-13T15:30:32.896Z,39.83
2018-09-13T15:33:01.211Z,34.40
2018-09-13T15:35:29.556Z,45.93
2018-09-13T15:37:57.884Z,38.73
2018-09-13T15:40:26.185Z,37.60
2018-09-13T15:42:54.521Z,40.27
2018-09-13T15:45:22.843Z,36.87
2018-09-13T15:47:51.177Z,31.80
2018-09-13T15:50:19.478Z,33.93
2018-09-13T15:52:47.867Z,34.90
2018-09-13T15:55:16.140Z,37.20
2018-09-13T15:57:44.456Z,36.47
2018-09-13T16:00:12.776Z,39.23
2018-09-13T16:02:41.105Z,37.30
2018-09-13T16:05:09.517Z,40.97
2018-09-13T16:07:37.840Z,37.60
2018-09-13T16:10:06.650Z,41.93
2018-09-13T16:12:35.034Z,33.37
2018-09-13T16:15:03.313Z,34.43
2018-09-13T16:17:31.612Z,46.53
2018-09-13T16:19:59.996Z,35.60
2018-09-13T16:22:28.252Z,34.40
2018-09-13T16:24:56.580Z,35.70
2018-09-13T16:27:24.936Z,34.93
2018-09-13T16:29:53.307Z,33.67
2018-09-13T16:32:23.308Z,32.93
2018-09-13T16:34:52.501Z,32.03
2018-09-13T16:37:26.117Z,33.20
2018-09-13T16:40:04.918Z,35.93
2018-09-13T16:42:44.400Z,35.87
2018-09-13T16:45:12.784Z,39.20
2018-09-13T16:47:46.405Z,38.90
2018-09-13T16:50:14.824Z,32.77
2018-09-13T16:52:43.147Z,38.70
2018-09-13T16:55:11.476Z,44.00
2018-09-13T16:57:39.788Z,34.60
2018-09-13T17:00:08.108Z,36.33
2018-09-13T17:02:36.472Z,39.23
2018-09-13T17:05:04.864Z,39.90
2018-09-13T17:07:33.316Z,47.03
2018-09-13T17:10:01.658Z,39.00
2018-09-13T17:12:29.965Z,41.77
2018-09-13T17:14:58.284Z,39.33
2018-09-13T17:17:26.596Z,38.27
2018-09-13T17:19:54.924Z,44.33
2018-09-13T17:22:23.256Z,38.40
2018-09-13T17:24:51.591Z,42.57
2018-09-13T17:27:19.936Z,46.90
2018-09-13T17:29:48.260Z,47.93
2018-09-13T17:32:16.560Z,65.67
2018-09-13T17:34:44.880Z,73.07
2018-09-13T17:37:13.184Z,136.17
2018-09-13T17:39:41.680Z,82.23
2018-09-13T17:42:09.984Z,147.83
2018-09-13T17:44:38.312Z,120.37
2018-09-13T17:47:06.603Z,85.07
2018-09-13T17:49:34.961Z,62.60
2018-09-13T17:52:03.269Z,49.93
2018-09-13T17:54:31.588Z,84.57
2018-09-13T17:56:59.960Z,77.07
2018-09-13T17:59:28.279Z,115.70
2018-09-13T18:01:56.584Z,91.57
2018-09-13T18:04:24.907Z,85.80
2018-09-13T18:06:53.259Z,201.93
2018-09-13T18:09:21.597Z,157.20
2018-09-13T18:11:49.919Z,109.47
2018-09-13T18:14:18.237Z,80.70
2018-09-13T18:16:46.544Z,46.50
2018-09-13T18:19:14.864Z,71.80
2018-09-13T18:21:43.191Z,63.23
2018-09-13T18:24:11.621Z,64.00
2018-09-13T18:26:39.932Z,62.90
2018-09-13T18:29:08.259Z,65.03
2018-09-13T18:31:36.573Z,91.47
2018-09-13T18:34:04.906Z,59.67
2018-09-13T18:36:33.232Z,63.83
2018-09-13T18:39:01.565Z,189.57
2018-09-13T18:41:29.904Z,149.47
2018-09-13T18:43:58.240Z,79.43
2018-09-13T18:46:26.548Z,85.73
2018-09-13T18:48:54.889Z,67.00
2018-09-13T18:51:23.196Z,74.83
2018-09-13T18:53:51.744Z,76.87
2018-09-13T18:56:19.960Z,115.60
2018-09-13T18:58:48.268Z,75.63
2018-09-13T19:01:16.602Z,62.13
2018-09-13T19:03:44.905Z,46.23
2018-09-13T19:06:13.220Z,67.97
2018-09-13T19:08:41.520Z,62.20
2018-09-13T19:11:09.926Z,39.33
2018-09-13T19:13:38.236Z,44.80
2018-09-13T19:16:06.789Z,39.53
2018-09-13T19:18:35.111Z,41.00
2018-09-13T19:21:03.433Z,36.07
2018-09-13T19:23:31.735Z,39.00
2018-09-13T19:26:00.065Z,27.83
2018-09-13T19:28:28.368Z,30.30
2018-09-13T19:30:56.743Z,45.03
2018-09-13T19:33:25.027Z,42.03
2018-09-13T19:35:53.344Z,43.80
2018-09-13T19:38:22.033Z,37.63
2018-09-13T19:40:50.392Z,27.00
2018-09-13T19:43:18.705Z,39.73
2018-09-13T19:45:47.020Z,40.23
2018-09-13T19:48:15.417Z,29.80
2018-09-13T19:50:43.801Z,27.63
2018-09-13T19:53:12.118Z,33.23
2018-09-13T19:55:40.428Z,27.43
2018-09-13T19:58:08.736Z,24.57
2018-09-13T20:00:37.056Z,23.20
2018-09-13T20:03:05.440Z,26.67
2018-09-13T20:05:33.808Z,28.63
2018-09-13T20:08:02.108Z,26.17
2018-09-13T20:10:30.452Z,31.40
2018-09-13T20:12:58.748Z,25.00
2018-09-13T20:15:27.195Z,19.43
2018-09-13T20:17:55.523Z,14.47
2018-09-13T20:20:23.861Z,24.70
2018-09-13T20:22:52.169Z,24.50
2018-09-13T20:25:20.631Z,26.70
2018-09-13T20:27:49.102Z,20.40
2018-09-13T20:30:17.517Z,19.00
2018-09-13T20:32:45.820Z,25.47
2018-09-13T20:35:14.144Z,31.40
2018-09-13T20:37:42.444Z,20.13
2018-09-13T20:40:10.761Z,31.10
2018-09-13T20:42:39.082Z,29.00
2018-09-13T20:45:07.452Z,18.90
2018-09-13T20:47:35.764Z,17.27
2018-09-13T20:50:04.153Z,19.43
2018-09-13T20:52:32.492Z,20.40
2018-09-13T20:55:00.841Z,21.60
2018-09-13T20:57:29.152Z,25.07
2018-09-13T20:59:57.475Z,17.93
2018-09-13T21:02:25.776Z,20.63
2018-09-13T21:04:54.102Z,14.97
2018-09-13T21:07:22.405Z,12.53
2018-09-13T21:09:50.726Z,16.40
2018-09-13T21:12:19.045Z,12.80
2018-09-13T21:14:47.359Z,16.83
2018-09-13T21:17:15.921Z,15.90
2018-09-13T21:19:44.526Z,22.17
2018-09-13T21:22:12.896Z,21.40
2018-09-13T21:24:41.199Z,25.10
2018-09-13T21:27:09.528Z,14.67
2018-09-13T21:29:37.864Z,17.17
2018-09-13T21:32:06.193Z,26.60
2018-09-13T21:34:34.496Z,19.50
2018-09-13T21:37:02.891Z,21.27
2018-09-13T21:39:31.204Z,21.83
2018-09-13T21:41:59.553Z,26.00
2018-09-13T21:44:27.929Z,26.00
2018-09-13T21:46:56.225Z,22.20
2018-09-13T21:49:24.537Z,26.03
2018-09-13T21:51:52.860Z,19.67
2018-09-13T21:54:21.156Z,17.13
2018-09-13T21:56:49.476Z,25.03
2018-09-13T21:59:17.775Z,21.17
2018-09-13T22:01:46.101Z,17.90
2018-09-13T22:04:14.409Z,20.93
2018-09-13T22:06:42.742Z,21.90
2018-09-13T22:09:11.052Z,27.90
2018-09-13T22:11:40.523Z,20.77
2018-09-13T22:14:08.824Z,24.53
2018-09-13T22:16:37.148Z,23.33
2018-09-13T22:19:05.464Z,22.70
2018-09-13T22:21:34.274Z,30.33
2018-09-13T22:24:02.985Z,21.70
2018-09-13T22:26:31.337Z,24.80
2018-09-13T22:28:59.682Z,34.10
2018-09-13T22:31:27.997Z,31.03
2018-09-13T22:33:56.668Z,25.93
2018-09-13T22:36:25.023Z,29.53
2018-09-13T22:38:53.326Z,31.97
2018-09-13T22:41:21.661Z,30.67
2018-09-13T22:43:50.767Z,32.73
2018-09-13T22:46:20.268Z,34.60
2018-09-13T22:48:48.780Z,37.70
2018-09-13T22:51:17.355Z,35.20
2018-09-13T22:53:45.694Z,33.90
2018-09-13T22:56:14.348Z,35.27
2018-09-13T22:58:42.648Z,37.87
2018-09-13T23:01:10.973Z,31.27
2018-09-13T23:03:39.283Z,38.87
2018-09-13T23:06:07.609Z,40.90
2018-09-13T23:08:35.912Z,36.17
2018-09-13T23:11:04.293Z,42.00
2018-09-13T23:13:32.695Z,39.27
2018-09-13T23:16:01.154Z,36.90
2018-09-13T23:18:29.444Z,34.53
2018-09-13T23:20:57.764Z,38.40
2018-09-13T23:23:26.076Z,40.17
2018-09-13T23:25:54.399Z,33.93
2018-09-13T23:28:22.729Z,37.63
2018-09-13T23:30:51.515Z,39.03
2018-09-13T23:33:19.831Z,47.90
2018-09-13T23:35:48.225Z,35.63
2018-09-13T23:38:16.545Z,35.73
2018-09-13T23:40:44.934Z,41.20
2018-09-13T23:43:13.224Z,47.03
2018-09-13T23:45:41.530Z,40.77
2018-09-13T23:48:09.852Z,42.70
2018-09-13T23:50:38.160Z,56.33
2018-09-13T23:53:06.508Z,47.60
2018-09-13T23:55:34.813Z,42.57
2018-09-13T23:58:03.186Z,48.83
